Time;durP1;ratioP1;P1;durP2;ratioP2;P2;SDS_P1;SDS_P2;PMS_P1;PMS_P2;Temp;Humidity;BMP_temperature;BMP_pressure;BME280_temperature;BME280_humidity;BME280_pressure;Samples;Min_cycle;Max_cycle;Signal;HPM_P1;HPM_P2
2023/12/11 00:02:16;;;;;;;39.97;6.07;;;9.00;99.90;;;;;;5048264;28;20511;-78
2023/12/11 00:04:41;;;;;;;49.20;5.63;;;9.00;99.90;;;;;;5047422;28;20040;-76
2023/12/11 00:07:07;;;;;;;49.70;6.68;;;9.00;99.90;;;;;;5050129;28;20064;-76
2023/12/11 00:09:33;;;;;;;40.45;6.05;;;9.00;99.90;;;;;;5047489;28;20036;-78
2023/12/11 00:11:58;;;;;;;52.03;4.97;;;9.00;99.90;;;;;;5047755;28;20560;-77
2023/12/11 00:14:24;;;;;;;48.25;5.63;;;9.00;99.90;;;;;;5048766;28;20025;-77
2023/12/11 00:16:50;;;;;;;38.97;6.53;;;9.10;99.90;;;;;;5047599;28;20028;-76
2023/12/11 00:19:16;;;;;;;59.03;8.77;;;9.10;99.90;;;;;;5048707;28;20029;-78
2023/12/11 00:21:41;;;;;;;39.83;7.53;;;9.10;99.90;;;;;;5045914;28;20527;-77
2023/12/11 00:24:07;;;;;;;38.53;5.68;;;9.10;99.90;;;;;;5048833;28;20036;-77
2023/12/11 00:26:32;;;;;;;42.42;7.53;;;9.00;99.90;;;;;;5049276;28;20567;-77
2023/12/11 00:28:58;;;;;;;47.33;7.85;;;9.00;99.90;;;;;;5047806;28;20124;-77
2023/12/11 00:31:23;;;;;;;38.40;5.47;;;9.10;99.90;;;;;;5047896;28;20036;-77
2023/12/11 00:33:49;;;;;;;42.78;7.05;;;9.10;99.90;;;;;;5046778;28;20051;-79
2023/12/11 00:36:14;;;;;;;39.67;5.03;;;9.20;99.90;;;;;;5047074;28;20029;-78
2023/12/11 00:38:40;;;;;;;31.40;5.40;;;9.20;99.90;;;;;;5047730;28;20029;-77
2023/12/11 00:41:07;;;;;;;32.03;4.32;;;9.30;99.90;;;;;;5049248;28;20504;-77
2023/12/11 00:43:32;;;;;;;33.80;4.93;;;9.30;99.90;;;;;;5042495;28;20044;-77
2023/12/11 00:45:58;;;;;;;26.42;5.38;;;9.40;99.90;;;;;;5027004;28;20037;-77
2023/12/11 00:48:23;;;;;;;43.90;5.38;;;9.40;99.90;;;;;;5028170;28;20026;-77
2023/12/11 00:50:49;;;;;;;30.38;4.78;;;9.40;99.90;;;;;;5038146;28;20060;-78
2023/12/11 00:53:14;;;;;;;54.97;6.30;;;9.40;99.90;;;;;;5047334;28;20029;-76
2023/12/11 00:55:40;;;;;;;31.45;6.15;;;9.50;99.90;;;;;;5044777;28;20037;-75
2023/12/11 00:58:06;;;;;;;36.00;4.78;;;9.50;99.90;;;;;;5047951;28;20029;-77
2023/12/11 01:00:31;;;;;;;44.33;5.75;;;9.50;99.90;;;;;;5048324;28;20063;-78
2023/12/11 01:02:57;;;;;;;30.73;4.10;;;9.50;99.90;;;;;;5047112;28;20048;-78
2023/12/11 01:05:22;;;;;;;36.10;6.07;;;9.60;99.90;;;;;;5048247;28;20040;-76
2023/12/11 01:07:49;;;;;;;35.80;6.30;;;9.60;99.90;;;;;;5046512;28;20529;-76
2023/12/11 01:10:15;;;;;;;33.60;6.03;;;9.70;99.90;;;;;;5048579;28;20033;-76
2023/12/11 01:12:42;;;;;;;41.35;4.88;;;9.70;99.90;;;;;;5052464;28;20039;-78
2023/12/11 01:15:08;;;;;;;36.30;6.30;;;9.70;99.90;;;;;;5051750;28;20029;-77
2023/12/11 01:17:34;;;;;;;30.80;5.65;;;9.70;99.90;;;;;;5050803;28;20043;-78
2023/12/11 01:19:59;;;;;;;38.95;6.18;;;9.70;99.90;;;;;;5053106;28;20112;-77
2023/12/11 01:22:25;;;;;;;30.98;4.35;;;9.60;99.90;;;;;;5053729;28;20227;-77
2023/12/11 01:24:50;;;;;;;43.92;5.25;;;9.60;99.90;;;;;;5051697;28;20500;-77
2023/12/11 01:27:16;;;;;;;22.23;5.55;;;9.60;99.90;;;;;;5050850;28;20063;-77
2023/12/11 01:29:41;;;;;;;38.58;4.85;;;9.60;99.90;;;;;;5049978;28;20035;-76
2023/12/11 01:32:07;;;;;;;30.30;4.85;;;9.60;99.90;;;;;;5049484;28;20128;-76
2023/12/11 01:34:33;;;;;;;32.65;5.57;;;9.70;99.90;;;;;;5049184;28;20056;-76
2023/12/11 01:36:59;;;;;;;36.83;4.45;;;9.70;99.90;;;;;;5050065;28;20029;-76
2023/12/11 01:39:24;;;;;;;38.55;5.43;;;9.70;99.90;;;;;;5049098;28;20029;-77
2023/12/11 01:41:50;;;;;;;35.03;4.57;;;9.70;99.90;;;;;;5049872;28;20087;-76
2023/12/11 01:44:15;;;;;;;34.33;5.40;;;9.60;99.90;;;;;;5041198;28;20033;-75
2023/12/11 01:46:41;;;;;;;35.47;6.40;;;9.60;99.90;;;;;;5030331;28;20037;-77
2023/12/11 01:49:07;;;;;;;47.63;4.45;;;9.60;99.90;;;;;;5041113;28;20123;-77
2023/12/11 01:51:33;;;;;;;30.88;5.75;;;9.50;99.90;;;;;;5050189;28;20072;-77
2023/12/11 01:53:59;;;;;;;32.40;3.92;;;9.50;99.90;;;;;;5050838;28;20041;-77
2023/12/11 01:56:25;;;;;;;32.92;4.55;;;9.50;99.90;;;;;;5049757;28;20082;-78
2023/12/11 01:58:51;;;;;;;32.75;4.38;;;9.50;99.90;;;;;;5049997;28;20029;-77
2023/12/11 02:01:21;;;;;;;31.40;5.05;;;9.50;99.90;;;;;;5050424;28;20029;-77
2023/12/11 02:03:47;;;;;;;39.97;6.05;;;9.50;99.90;;;;;;5048209;28;20044;-77
2023/12/11 02:06:13;;;;;;;34.65;5.93;;;9.40;99.90;;;;;;5048826;28;20074;-78
2023/12/11 02:08:39;;;;;;;30.15;3.53;;;9.40;99.90;;;;;;5049637;28;20029;-78
2023/12/11 02:11:04;;;;;;;24.52;4.53;;;9.50;99.90;;;;;;5051754;28;20037;-76
2023/12/11 02:13:30;;;;;;;41.42;6.90;;;9.40;99.90;;;;;;5048645;28;20033;-78
2023/12/11 02:15:56;;;;;;;34.03;4.28;;;9.40;99.90;;;;;;5049253;28;20376;-77
2023/12/11 02:18:22;;;;;;;30.02;3.78;;;9.40;99.90;;;;;;5050175;28;20176;-77
2023/12/11 02:20:47;;;;;;;32.88;4.22;;;9.40;99.90;;;;;;5049450;28;20551;-78
2023/12/11 02:23:22;;;;;;;32.70;4.18;;;9.30;99.90;;;;;;5049060;28;20064;-74
2023/12/11 02:25:57;;;;;;;44.75;4.53;;;9.40;99.90;;;;;;5048553;28;20083;-77
2023/12/11 02:28:22;;;;;;;38.25;5.32;;;9.40;99.90;;;;;;5047968;28;20064;-77
2023/12/11 02:30:51;;;;;;;34.38;4.00;;;9.40;99.90;;;;;;5048292;28;20469;-76
2023/12/11 02:33:17;;;;;;;36.30;4.90;;;9.40;99.90;;;;;;5047852;28;20041;-76
2023/12/11 02:35:45;;;;;;;43.17;5.90;;;9.40;99.90;;;;;;5048692;28;20055;-77
2023/12/11 02:38:11;;;;;;;34.78;6.40;;;9.40;99.90;;;;;;5051703;28;20037;-78
2023/12/11 02:40:36;;;;;;;37.20;3.65;;;9.40;99.90;;;;;;5049283;28;20048;-78
2023/12/11 02:43:02;;;;;;;30.02;4.57;;;9.40;99.90;;;;;;5049642;28;20114;-77
2023/12/11 02:45:28;;;;;;;39.65;4.55;;;9.40;99.90;;;;;;5048688;28;20051;-77
2023/12/11 02:48:02;;;;;;;32.55;3.40;;;9.40;99.90;;;;;;5048237;28;20033;-75
2023/12/11 02:50:31;;;;;;;30.13;6.20;;;9.40;99.90;;;;;;5051037;28;20025;-76
2023/12/11 02:52:58;;;;;;;33.03;3.92;;;9.40;99.90;;;;;;5048990;28;20048;-77
2023/12/11 02:55:24;;;;;;;34.97;4.65;;;9.40;99.90;;;;;;5048035;28;20039;-77
2023/12/11 02:57:50;;;;;;;32.40;4.55;;;9.40;99.90;;;;;;5048170;28;20531;-76
2023/12/11 03:00:16;;;;;;;33.45;7.72;;;9.40;99.90;;;;;;5047966;28;20538;-77
2023/12/11 03:02:41;;;;;;;34.53;4.22;;;9.40;99.90;;;;;;5046232;28;20124;-77
2023/12/11 03:05:07;;;;;;;33.80;4.68;;;9.30;99.90;;;;;;5047663;28;20036;-76
2023/12/11 03:07:33;;;;;;;46.40;5.60;;;9.40;99.90;;;;;;5047310;28;20029;-77
2023/12/11 03:09:58;;;;;;;28.45;4.15;;;9.40;99.90;;;;;;5048150;28;20029;-75
2023/12/11 03:12:24;;;;;;;40.22;4.43;;;9.30;99.90;;;;;;5049546;28;20127;-76
2023/12/11 03:14:49;;;;;;;37.90;5.32;;;9.30;99.90;;;;;;5046652;28;20036;-76
2023/12/11 03:17:15;;;;;;;34.47;4.85;;;9.40;99.90;;;;;;5049311;28;20040;-77
2023/12/11 03:19:41;;;;;;;35.05;5.25;;;9.30;99.90;;;;;;5049120;28;20094;-77
2023/12/11 03:22:06;;;;;;;29.65;4.10;;;9.40;99.90;;;;;;5050078;28;20044;-77
2023/12/11 03:24:32;;;;;;;43.17;5.60;;;9.40;99.90;;;;;;5047199;28;20039;-78
2023/12/11 03:26:57;;;;;;;32.15;5.72;;;9.30;99.90;;;;;;5047419;28;20039;-77
2023/12/11 03:29:23;;;;;;;31.88;5.00;;;9.40;99.90;;;;;;5046967;28;20039;-78
2023/12/11 03:31:48;;;;;;;38.72;6.68;;;9.40;99.90;;;;;;5046075;28;20044;-76
2023/12/11 03:34:14;;;;;;;23.00;4.43;;;9.50;99.90;;;;;;5046201;28;20029;-77
2023/12/11 03:36:39;;;;;;;37.70;4.53;;;9.40;99.90;;;;;;5047764;28;20041;-77
2023/12/11 03:39:07;;;;;;;37.40;5.70;;;9.50;99.90;;;;;;5047749;28;20048;-77
2023/12/11 03:41:33;;;;;;;34.72;6.18;;;9.50;99.90;;;;;;5048658;28;20539;-76
2023/12/11 03:43:58;;;;;;;37.80;6.07;;;9.60;99.90;;;;;;5041693;28;20048;-76
2023/12/11 03:46:24;;;;;;;41.80;5.43;;;9.60;99.90;;;;;;5027745;28;20030;-77
2023/12/11 03:48:49;;;;;;;29.38;4.60;;;9.60;99.90;;;;;;5037681;28;20107;-77
2023/12/11 03:51:15;;;;;;;23.63;3.80;;;9.60;99.90;;;;;;5046777;28;20452;-77
2023/12/11 03:53:41;;;;;;;32.00;5.03;;;9.60;99.90;;;;;;5046181;28;20025;-78
2023/12/11 03:56:06;;;;;;;40.55;6.10;;;9.60;99.90;;;;;;5048298;28;20045;-77
2023/12/11 03:58:32;;;;;;;34.53;4.82;;;9.60;99.90;;;;;;5047127;28;20041;-77
2023/12/11 04:00:58;;;;;;;34.53;4.90;;;9.70;99.90;;;;;;5047777;28;20037;-77
2023/12/11 04:03:23;;;;;;;35.10;5.68;;;9.60;99.90;;;;;;5047715;28;20056;-77
2023/12/11 04:05:49;;;;;;;32.03;4.20;;;9.70;99.90;;;;;;5050697;28;20519;-77
2023/12/11 04:08:15;;;;;;;44.53;5.20;;;9.60;99.90;;;;;;5050578;28;20400;-78
2023/12/11 04:10:41;;;;;;;26.17;4.53;;;9.60;99.90;;;;;;5051592;28;20060;-76
2023/12/11 04:13:06;;;;;;;35.05;5.13;;;9.70;99.90;;;;;;5050564;28;20029;-78
2023/12/11 04:15:33;;;;;;;36.58;5.22;;;9.70;99.90;;;;;;5052426;28;20048;-78
2023/12/11 04:17:58;;;;;;;38.85;6.00;;;9.70;99.90;;;;;;5048942;28;20040;-77
2023/12/11 04:20:24;;;;;;;37.50;6.70;;;9.60;99.90;;;;;;5047906;28;20436;-76
2023/12/11 04:22:49;;;;;;;37.95;5.18;;;9.60;99.90;;;;;;5049078;28;20048;-77
2023/12/11 04:25:15;;;;;;;45.00;7.78;;;9.60;99.90;;;;;;5048491;28;20043;-76
2023/12/11 04:27:41;;;;;;;32.33;4.40;;;9.60;99.90;;;;;;5048455;28;20043;-78
2023/12/11 04:30:07;;;;;;;49.50;5.60;;;9.60;99.90;;;;;;5047665;28;20496;-77
2023/12/11 04:32:32;;;;;;;32.53;4.22;;;9.60;99.90;;;;;;5047925;28;20044;-77
2023/12/11 04:34:58;;;;;;;38.58;4.32;;;9.60;99.90;;;;;;5048617;28;20029;-76
2023/12/11 04:37:23;;;;;;;33.13;5.47;;;9.60;99.90;;;;;;5052162;28;20500;-78
2023/12/11 04:39:49;;;;;;;35.85;5.63;;;9.50;99.90;;;;;;5048087;28;20041;-77
2023/12/11 04:42:14;;;;;;;32.80;5.32;;;9.50;99.90;;;;;;5051086;28;20025;-77
2023/12/11 04:44:40;;;;;;;36.05;5.32;;;9.70;99.90;;;;;;5046841;28;20069;-77
2023/12/11 04:47:06;;;;;;;31.33;4.10;;;9.60;99.90;;;;;;5051609;28;20037;-77
2023/12/11 04:49:31;;;;;;;32.88;4.40;;;9.60;99.90;;;;;;5051563;28;20112;-78
2023/12/11 04:51:57;;;;;;;28.10;4.80;;;9.60;99.90;;;;;;5051938;28;20052;-77
2023/12/11 04:54:22;;;;;;;26.35;3.65;;;9.60;99.90;;;;;;5051400;28;20033;-76
2023/12/11 04:56:48;;;;;;;32.97;3.83;;;9.70;99.90;;;;;;5050072;28;20064;-76
2023/12/11 04:59:13;;;;;;;36.20;5.50;;;9.60;99.90;;;;;;5050672;28;20033;-75
2023/12/11 05:01:39;;;;;;;32.67;4.65;;;9.60;99.90;;;;;;5050237;28;20170;-77
2023/12/11 05:04:05;;;;;;;33.05;3.97;;;9.60;99.90;;;;;;5051210;28;20036;-76
2023/12/11 05:06:30;;;;;;;22.02;4.55;;;9.60;99.90;;;;;;5051181;28;20040;-78
2023/12/11 05:08:56;;;;;;;38.88;4.82;;;9.60;99.90;;;;;;5049619;28;20037;-77
2023/12/11 05:11:22;;;;;;;37.10;4.95;;;9.60;99.90;;;;;;5052229;28;20037;-78
2023/12/11 05:13:47;;;;;;;35.22;4.00;;;9.70;99.90;;;;;;5052072;28;20037;-77
2023/12/11 05:16:13;;;;;;;27.08;4.70;;;9.60;99.90;;;;;;5052867;28;20025;-78
2023/12/11 05:18:39;;;;;;;35.40;6.72;;;9.60;99.90;;;;;;5051974;28;20116;-77
2023/12/11 05:21:08;;;;;;;32.17;4.88;;;9.70;99.90;;;;;;5052632;28;20029;-76
2023/12/11 05:23:34;;;;;;;35.20;3.35;;;9.70;99.90;;;;;;5051021;28;20044;-78
2023/12/11 05:26:00;;;;;;;38.47;5.95;;;9.70;99.90;;;;;;5051064;28;20040;-77
2023/12/11 05:28:25;;;;;;;30.60;4.55;;;9.60;99.90;;;;;;5052207;28;20071;-77
2023/12/11 05:30:51;;;;;;;35.75;3.92;;;9.70;99.90;;;;;;5045305;28;20071;-77
2023/12/11 05:33:16;;;;;;;29.58;3.50;;;9.60;99.90;;;;;;5033888;28;20481;-77
2023/12/11 05:35:42;;;;;;;18.85;3.05;;;9.60;99.90;;;;;;5038592;28;20033;-78
2023/12/11 05:38:08;;;;;;;34.70;4.75;;;9.60;99.90;;;;;;5044215;28;20039;-76
2023/12/11 05:40:33;;;;;;;22.15;4.22;;;9.60;99.90;;;;;;5045355;28;20036;-77
2023/12/11 05:42:59;;;;;;;22.63;4.32;;;9.60;99.90;;;;;;5044572;28;20039;-79
2023/12/11 05:45:24;;;;;;;27.75;3.55;;;9.60;99.90;;;;;;5033056;28;20033;-78
2023/12/11 05:47:50;;;;;;;16.13;3.05;;;9.60;99.90;;;;;;5048727;28;20033;-76
2023/12/11 05:50:16;;;;;;;30.52;3.30;;;9.60;99.90;;;;;;5050204;28;20029;-79
2023/12/11 05:52:41;;;;;;;28.27;2.75;;;9.60;99.90;;;;;;5050120;28;20083;-78
2023/12/11 05:55:07;;;;;;;18.77;3.25;;;9.60;99.90;;;;;;5051417;28;20029;-78
2023/12/11 05:57:32;;;;;;;26.15;3.25;;;9.60;99.90;;;;;;5035278;28;20485;-76
2023/12/11 05:59:58;;;;;;;20.30;3.50;;;9.60;99.90;;;;;;5033941;28;20041;-77
2023/12/11 06:02:24;;;;;;;17.38;2.65;;;9.60;99.90;;;;;;5031491;28;20037;-78
2023/12/11 06:04:51;;;;;;;20.85;3.47;;;9.60;99.90;;;;;;5030146;28;20049;-77
2023/12/11 06:07:17;;;;;;;17.67;3.75;;;9.60;99.90;;;;;;5030383;28;20608;-77
2023/12/11 06:09:42;;;;;;;11.80;1.95;;;9.60;99.90;;;;;;5028891;28;20038;-79
2023/12/11 06:12:09;;;;;;;14.65;1.98;;;9.60;99.90;;;;;;5028038;28;20037;-75
2023/12/11 06:14:38;;;;;;;16.08;2.40;;;9.60;99.90;;;;;;5029931;28;20125;-79
2023/12/11 06:17:04;;;;;;;26.15;3.03;;;9.60;99.90;;;;;;5029144;28;20587;-78
2023/12/11 06:19:29;;;;;;;27.08;3.78;;;9.50;99.90;;;;;;5029379;28;20041;-76
2023/12/11 06:21:55;;;;;;;24.75;3.80;;;9.40;99.90;;;;;;5032650;28;20041;-79
2023/12/11 06:24:20;;;;;;;20.40;4.18;;;9.40;99.90;;;;;;5027828;28;20061;-77
2023/12/11 06:26:46;;;;;;;16.30;2.67;;;9.40;99.90;;;;;;5027803;28;20029;-78
2023/12/11 06:29:12;;;;;;;23.63;3.50;;;9.40;99.90;;;;;;5027754;28;20079;-78
2023/12/11 06:31:37;;;;;;;22.05;2.80;;;9.40;99.90;;;;;;5028557;28;20497;-78
2023/12/11 06:34:03;;;;;;;29.73;3.53;;;9.40;99.90;;;;;;5030589;28;20056;-78
2023/12/11 06:36:29;;;;;;;18.55;1.90;;;9.40;99.90;;;;;;5028396;28;20047;-78
2023/12/11 06:38:54;;;;;;;14.77;1.55;;;9.40;99.90;;;;;;5028613;28;20088;-78
2023/12/11 06:41:20;;;;;;;19.20;3.35;;;9.40;99.90;;;;;;5028283;28;20073;-79
2023/12/11 06:43:52;;;;;;;16.13;2.67;;;9.40;99.90;;;;;;5028813;28;20064;-78
2023/12/11 06:46:18;;;;;;;14.32;2.30;;;9.40;99.90;;;;;;5032100;28;20140;-77
2023/12/11 06:48:44;;;;;;;18.45;2.75;;;9.40;99.90;;;;;;5026944;28;20112;-79
2023/12/11 06:51:10;;;;;;;12.02;2.25;;;9.40;99.90;;;;;;5028779;28;20523;-78
2023/12/11 06:53:36;;;;;;;21.02;3.88;;;9.40;99.90;;;;;;5036276;28;20049;-76
2023/12/11 06:56:03;;;;;;;18.90;3.28;;;9.30;99.90;;;;;;5028354;28;20476;-74
2023/12/11 06:58:29;;;;;;;14.48;2.13;;;9.30;99.90;;;;;;5030226;28;20041;-78
2023/12/11 07:00:54;;;;;;;13.98;2.00;;;9.40;99.90;;;;;;5030241;28;20064;-77
2023/12/11 07:03:20;;;;;;;19.42;2.78;;;9.30;99.90;;;;;;5028069;28;20057;-77
2023/12/11 07:05:46;;;;;;;14.35;3.05;;;9.30;99.90;;;;;;5027254;28;20408;-76
2023/12/11 07:08:11;;;;;;;14.20;2.75;;;9.30;99.90;;;;;;5031373;28;20288;-77
2023/12/11 07:10:38;;;;;;;17.92;1.48;;;9.30;99.90;;;;;;5033436;28;20030;-78
2023/12/11 07:13:03;;;;;;;21.45;3.35;;;9.30;99.90;;;;;;5026757;28;20040;-78
2023/12/11 07:15:29;;;;;;;12.60;2.25;;;9.30;99.90;;;;;;5028912;28;20025;-78
2023/12/11 07:17:56;;;;;;;13.23;1.65;;;9.30;99.90;;;;;;5032039;28;20037;-78
2023/12/11 07:20:22;;;;;;;14.10;2.30;;;9.30;99.90;;;;;;5031160;28;20041;-77
2023/12/11 07:22:49;;;;;;;11.48;1.90;;;9.30;99.90;;;;;;5029384;28;20531;-79
2023/12/11 07:25:14;;;;;;;13.68;2.17;;;9.40;99.90;;;;;;5029605;28;20045;-78
2023/12/11 07:27:41;;;;;;;29.55;3.92;;;9.50;99.90;;;;;;5027131;28;20032;-78
2023/12/11 07:30:07;;;;;;;25.08;2.22;;;9.40;99.90;;;;;;5027987;28;20116;-77
2023/12/11 07:32:33;;;;;;;10.88;1.50;;;9.40;99.90;;;;;;5027838;28;20033;-78
2023/12/11 07:35:00;;;;;;;12.90;1.92;;;9.40;99.90;;;;;;5027979;28;20038;-80
2023/12/11 07:37:25;;;;;;;18.75;2.75;;;9.30;99.90;;;;;;5032433;28;20075;-77
2023/12/11 07:39:51;;;;;;;14.38;1.13;;;9.30;99.90;;;;;;5028997;28;20459;-77
2023/12/11 07:42:16;;;;;;;16.38;3.00;;;9.40;99.90;;;;;;5029538;28;20033;-78
2023/12/11 07:44:42;;;;;;;9.55;1.20;;;9.30;99.90;;;;;;5024755;28;20029;-78
2023/12/11 07:47:08;;;;;;;18.35;3.15;;;9.30;99.90;;;;;;5025306;28;20063;-78
2023/12/11 07:49:33;;;;;;;11.70;1.45;;;9.30;99.90;;;;;;5027658;28;20477;-78
2023/12/11 07:52:01;;;;;;;12.30;1.08;;;9.30;99.90;;;;;;5024713;28;20025;-79
2023/12/11 07:54:27;;;;;;;11.40;1.20;;;9.30;99.90;;;;;;5025805;28;20060;-77
2023/12/11 07:56:52;;;;;;;11.48;2.45;;;9.20;99.90;;;;;;5026071;28;20083;-78
2023/12/11 07:59:18;;;;;;;13.02;1.65;;;9.20;99.90;;;;;;5028554;28;20469;-79
2023/12/11 08:01:44;;;;;;;9.05;1.20;;;9.30;99.90;;;;;;5026715;28;20107;-80
2023/12/11 08:04:09;;;;;;;15.02;2.10;;;9.20;99.90;;;;;;5025388;28;20124;-78
2023/12/11 08:06:40;;;;;;;19.75;2.75;;;9.30;99.90;;;;;;5027654;28;20094;-78
2023/12/11 08:09:06;;;;;;;13.95;3.25;;;9.30;99.90;;;;;;5021554;28;20025;-78
2023/12/11 08:11:31;;;;;;;13.35;2.40;;;9.20;99.90;;;;;;5031246;28;20037;-79
2023/12/11 08:13:57;;;;;;;14.88;1.20;;;9.30;99.90;;;;;;5036392;28;20079;-77
2023/12/11 08:16:23;;;;;;;15.23;1.92;;;9.30;99.90;;;;;;5031136;28;20033;-79
2023/12/11 08:18:49;;;;;;;6.43;1.02;;;9.30;99.90;;;;;;5024291;28;20508;-79
2023/12/11 08:21:18;;;;;;;9.73;2.13;;;9.30;99.90;;;;;;5025721;28;20030;-79
2023/12/11 08:23:44;;;;;;;12.57;1.83;;;9.30;99.90;;;;;;5028155;28;20037;-77
2023/12/11 08:26:11;;;;;;;6.22;1.17;;;9.30;99.90;;;;;;5034409;28;20029;-76
2023/12/11 08:28:37;;;;;;;12.10;1.98;;;9.30;99.90;;;;;;5046210;28;20037;-77
2023/12/11 08:31:06;;;;;;;11.95;1.23;;;9.30;99.90;;;;;;5037533;28;20033;-77
2023/12/11 08:33:31;;;;;;;8.93;1.75;;;9.20;99.90;;;;;;5043803;28;20091;-79
2023/12/11 08:35:57;;;;;;;8.60;1.50;;;9.20;99.90;;;;;;5046930;28;20041;-78
2023/12/11 08:38:23;;;;;;;5.25;0.63;;;9.30;99.90;;;;;;5049234;28;20040;-76
2023/12/11 08:40:49;;;;;;;14.57;1.23;;;9.20;99.90;;;;;;5047880;28;20448;-79
2023/12/11 08:43:16;;;;;;;11.60;1.70;;;9.30;99.90;;;;;;5042582;28;20021;-77
2023/12/11 08:45:42;;;;;;;13.48;1.30;;;9.30;99.90;;;;;;5025810;28;20132;-75
2023/12/11 08:48:07;;;;;;;5.65;1.15;;;9.30;99.90;;;;;;5034447;28;20527;-77
2023/12/11 08:50:33;;;;;;;10.70;1.90;;;9.30;99.90;;;;;;5047118;28;20439;-78
2023/12/11 08:53:03;;;;;;;12.52;1.45;;;9.30;99.90;;;;;;5048787;28;20036;-79
2023/12/11 08:55:29;;;;;;;9.90;0.93;;;9.40;99.90;;;;;;5050096;28;20032;-79
2023/12/11 08:57:55;;;;;;;14.20;2.55;;;9.40;99.90;;;;;;5048995;28;20377;-79
2023/12/11 09:00:21;;;;;;;4.25;1.30;;;9.40;99.90;;;;;;5049746;28;20120;-80
2023/12/11 09:02:47;;;;;;;8.35;2.08;;;9.50;99.90;;;;;;5048360;28;20462;-77
2023/12/11 09:05:12;;;;;;;6.55;0.90;;;9.40;99.90;;;;;;5048370;28;20025;-79
2023/12/11 09:07:38;;;;;;;6.93;0.98;;;9.40;99.90;;;;;;5048690;28;20036;-79
2023/12/11 09:10:04;;;;;;;10.77;1.73;;;9.50;99.90;;;;;;5047873;28;20029;-78
2023/12/11 09:12:30;;;;;;;11.95;2.03;;;9.60;99.90;;;;;;5047812;28;20061;-78
2023/12/11 09:14:56;;;;;;;8.48;1.92;;;9.50;99.90;;;;;;5047705;28;20072;-79
2023/12/11 09:17:21;;;;;;;9.57;1.48;;;9.50;99.90;;;;;;5048568;28;20029;-80
2023/12/11 09:19:47;;;;;;;12.95;1.65;;;9.60;99.90;;;;;;5048396;28;20047;-77
2023/12/11 09:22:13;;;;;;;6.80;1.17;;;9.60;99.90;;;;;;5031336;28;20036;-77
2023/12/11 09:24:38;;;;;;;14.38;2.15;;;9.50;99.90;;;;;;5047106;28;20029;-78
2023/12/11 09:27:04;;;;;;;14.02;1.50;;;9.40;99.90;;;;;;5048043;28;20021;-79
2023/12/11 09:29:30;;;;;;;13.13;1.70;;;9.50;99.90;;;;;;5049299;28;20401;-78
2023/12/11 09:31:56;;;;;;;13.23;1.85;;;9.50;99.90;;;;;;5047813;28;20164;-78
2023/12/11 09:34:21;;;;;;;16.25;2.88;;;9.50;99.90;;;;;;5050394;28;20094;-78
2023/12/11 09:36:47;;;;;;;16.13;1.38;;;9.60;99.90;;;;;;5050891;28;20459;-78
2023/12/11 09:39:13;;;;;;;15.27;2.33;;;9.60;99.90;;;;;;5050564;28;20025;-77
2023/12/11 09:41:39;;;;;;;24.08;2.63;;;9.60;99.90;;;;;;5051578;28;20043;-78
2023/12/11 09:44:05;;;;;;;13.90;2.35;;;9.60;99.90;;;;;;5051080;28;20064;-78
2023/12/11 09:46:37;;;;;;;13.63;2.25;;;9.60;99.90;;;;;;5051739;28;20496;-78
2023/12/11 09:49:03;;;;;;;15.70;3.03;;;9.60;99.90;;;;;;5050809;28;20048;-79
2023/12/11 09:51:29;;;;;;;13.55;2.47;;;9.60;99.90;;;;;;5052772;28;20122;-79
2023/12/11 09:53:56;;;;;;;8.63;1.42;;;9.60;99.90;;;;;;5050666;28;20107;-79
2023/12/11 09:56:22;;;;;;;12.80;2.33;;;9.50;99.90;;;;;;5051949;28;20094;-78
2023/12/11 09:58:48;;;;;;;12.35;1.92;;;9.50;99.90;;;;;;5052328;28;20029;-79
2023/12/11 10:01:15;;;;;;;15.40;1.90;;;9.50;99.90;;;;;;5050925;28;20049;-79
2023/12/11 10:03:41;;;;;;;9.90;1.75;;;9.50;99.90;;;;;;5050244;28;20056;-79
2023/12/11 10:06:07;;;;;;;28.65;2.90;;;9.50;99.90;;;;;;5052079;28;20033;-79
2023/12/11 10:08:43;;;;;;;8.05;1.77;;;9.40;99.90;;;;;;5051522;28;20108;-79
2023/12/11 10:11:16;;;;;;;11.00;1.35;;;9.50;99.90;;;;;;5049873;28;20033;-78
2023/12/11 10:13:41;;;;;;;12.98;3.13;;;9.50;99.90;;;;;;5038711;28;20033;-78
2023/12/11 10:16:36;;;;;;;12.30;2.58;;;9.50;99.90;;;;;;5052103;28;20029;-80
2023/12/11 10:19:02;;;;;;;10.32;2.35;;;9.60;99.90;;;;;;5049762;28;20116;-76
2023/12/11 10:21:41;;;;;;;14.10;1.75;;;9.50;99.90;;;;;;5051687;28;20183;-78
2023/12/11 10:24:14;;;;;;;12.57;1.70;;;9.50;99.90;;;;;;5049552;28;20047;-79
2023/12/11 10:26:45;;;;;;;8.82;1.83;;;9.60;99.90;;;;;;5039180;28;20030;-80
2023/12/11 10:29:21;;;;;;;9.82;1.88;;;9.50;99.90;;;;;;5029461;28;20485;-78
2023/12/11 10:31:51;;;;;;;17.20;2.85;;;9.50;99.90;;;;;;5031157;28;20116;-79
2023/12/11 10:34:17;;;;;;;14.80;1.73;;;9.50;99.90;;;;;;5050958;28;20025;-78
2023/12/11 10:36:52;;;;;;;15.13;1.83;;;9.40;99.90;;;;;;5049664;28;20044;-78
2023/12/11 10:39:19;;;;;;;13.30;2.58;;;9.40;99.90;;;;;;5050576;28;20530;-78
2023/12/11 10:41:45;;;;;;;11.38;1.52;;;9.30;99.90;;;;;;5049726;28;20044;-77
2023/12/11 10:44:40;;;;;;;11.30;1.50;;;9.30;99.90;;;;;;5045808;28;20037;-77
2023/12/11 10:47:07;;;;;;;14.18;1.50;;;9.30;99.90;;;;;;5017753;28;20034;-80
2023/12/11 10:49:33;;;;;;;8.85;1.17;;;9.30;99.90;;;;;;5030926;28;20029;-79
2023/12/11 10:52:02;;;;;;;9.80;1.02;;;9.30;99.90;;;;;;5031821;28;20033;-80
2023/12/11 10:54:28;;;;;;;13.18;1.83;;;9.40;99.90;;;;;;5049677;28;20849;-79
2023/12/11 10:56:56;;;;;;;8.25;1.00;;;9.40;99.90;;;;;;5049110;28;20260;-79
2023/12/11 10:59:22;;;;;;;14.45;2.35;;;9.40;99.90;;;;;;5049857;28;20483;-78
2023/12/11 11:01:49;;;;;;;9.30;1.75;;;9.50;99.90;;;;;;5048668;28;20140;-79
2023/12/11 11:04:17;;;;;;;12.48;1.80;;;9.40;99.90;;;;;;5049901;28;20115;-79
2023/12/11 11:06:53;;;;;;;13.15;1.50;;;9.40;99.90;;;;;;5048483;28;20021;-78
2023/12/11 11:09:33;;;;;;;12.38;1.48;;;9.30;99.90;;;;;;5049448;28;20454;-78
2023/12/11 11:12:07;;;;;;;9.40;0.93;;;9.30;99.90;;;;;;5049129;28;20503;-79
2023/12/11 11:14:49;;;;;;;8.25;0.73;;;9.30;99.90;;;;;;5048914;28;20040;-78
2023/12/11 11:17:16;;;;;;;6.57;1.65;;;9.40;99.90;;;;;;5048473;28;20040;-78
2023/12/11 11:20:10;;;;;;;7.70;1.45;;;9.40;99.90;;;;;;5046878;28;20073;-79
2023/12/11 11:22:36;;;;;;;9.43;1.42;;;9.50;99.90;;;;;;5048723;28;20032;-80
2023/12/11 11:25:30;;;;;;;8.93;1.25;;;9.50;99.90;;;;;;5050701;28;20044;-78
2023/12/11 11:27:56;;;;;;;12.55;1.85;;;9.50;99.90;;;;;;5048060;28;20069;-79
2023/12/11 11:30:46;;;;;;;4.47;1.88;;;9.60;99.90;;;;;;5049256;28;20029;-78
2023/12/11 11:33:12;;;;;;;15.38;2.28;;;9.60;99.90;;;;;;5008918;28;20034;-78
2023/12/11 11:35:54;;;;;;;6.70;1.30;;;9.60;99.90;;;;;;5024408;28;20127;-79
2023/12/11 11:38:40;;;;;;;5.68;1.65;;;9.60;99.90;;;;;;5049875;28;20677;-77
2023/12/11 11:41:20;;;;;;;6.78;0.95;;;9.70;99.90;;;;;;5049477;28;20029;-76
2023/12/11 11:44:04;;;;;;;7.38;1.05;;;9.70;99.90;;;;;;5044938;28;20489;-78
2023/12/11 11:46:48;;;;;;;7.55;1.00;;;9.80;99.90;;;;;;5028706;28;20040;-79
2023/12/11 11:49:33;;;;;;;10.48;1.63;;;9.80;99.90;;;;;;5029034;28;20030;-77
2023/12/11 11:52:03;;;;;;;5.20;0.98;;;9.80;99.90;;;;;;5047587;28;20472;-77
2023/12/11 11:54:31;;;;;;;6.30;2.08;;;9.80;99.90;;;;;;5050790;28;20029;-78
2023/12/11 11:56:56;;;;;;;6.55;1.60;;;9.80;99.90;;;;;;5048102;28;20040;-77
2023/12/11 11:59:22;;;;;;;10.05;0.93;;;9.90;99.90;;;;;;5048616;28;20028;-77
2023/12/11 12:01:52;;;;;;;9.63;1.33;;;9.80;99.90;;;;;;5049008;28;20044;-77
2023/12/11 12:04:34;;;;;;;7.38;1.10;;;9.90;99.90;;;;;;5049981;28;20128;-79
2023/12/11 12:07:02;;;;;;;8.50;0.90;;;9.80;99.90;;;;;;5049001;28;20039;-77
2023/12/11 12:09:27;;;;;;;10.60;2.67;;;9.80;99.90;;;;;;5049145;28;20032;-77
2023/12/11 12:11:53;;;;;;;12.30;1.85;;;9.80;99.90;;;;;;5048393;28;20025;-77
2023/12/11 12:14:20;;;;;;;8.65;1.40;;;9.80;99.90;;;;;;5050837;28;20381;-78
2023/12/11 12:16:46;;;;;;;16.73;2.13;;;9.90;99.90;;;;;;5047698;28;20029;-76
2023/12/11 12:19:12;;;;;;;4.93;1.00;;;9.90;99.90;;;;;;5048775;28;20116;-77
2023/12/11 12:21:51;;;;;;;9.15;1.38;;;9.90;99.90;;;;;;5049635;28;20233;-77
2023/12/11 12:24:19;;;;;;;10.27;1.75;;;9.90;99.90;;;;;;5048712;28;20037;-78
2023/12/11 12:26:46;;;;;;;10.07;1.27;;;9.90;99.90;;;;;;5048225;28;20056;-76
2023/12/11 12:29:13;;;;;;;6.68;1.23;;;9.90;99.90;;;;;;5048924;28;20036;-77
2023/12/11 12:31:40;;;;;;;11.48;2.08;;;9.90;99.90;;;;;;5047542;28;20200;-77
2023/12/11 12:34:09;;;;;;;5.10;0.70;;;10.00;99.90;;;;;;5049453;28;20166;-77
2023/12/11 12:36:35;;;;;;;13.00;0.70;;;10.00;99.90;;;;;;5009371;28;20114;-77
2023/12/11 12:39:01;;;;;;;3.55;0.65;;;10.00;99.90;;;;;;5014833;28;20627;-76
2023/12/11 12:41:28;;;;;;;3.60;0.77;;;10.00;99.90;;;;;;5049469;28;20049;-79
2023/12/11 12:43:58;;;;;;;8.73;1.02;;;10.00;99.90;;;;;;5043412;28;20052;-77
2023/12/11 12:46:36;;;;;;;4.97;1.13;;;10.00;99.90;;;;;;5048947;28;20441;-77
2023/12/11 12:49:14;;;;;;;3.97;0.80;;;10.00;99.90;;;;;;5038997;28;20539;-78